sensor_id;sensor_type;location;lat;lon;timestamp;P1;durP1;ratioP1;P2;durP2;ratioP2
35959;SDS011;22043;50.970;7.192;2023-10-19T00:00:35;10.45;;;4.85;;
35959;SDS011;22043;50.970;7.192;2023-10-19T00:03:04;8.68;;;4.85;;
35959;SDS011;22043;50.970;7.192;2023-10-19T00:05:34;9.35;;;4.93;;
35959;SDS011;22043;50.970;7.192;2023-10-19T00:08:01;9.18;;;5.40;;
35959;SDS011;22043;50.970;7.192;2023-10-19T00:10:31;12.30;;;5.88;;
35959;SDS011;22043;50.970;7.192;2023-10-19T00:13:02;9.80;;;5.68;;
35959;SDS011;22043;50.970;7.192;2023-10-19T00:15:31;7.80;;;4.20;;
35959;SDS011;22043;50.970;7.192;2023-10-19T00:17:59;8.57;;;4.47;;
35959;SDS011;22043;50.970;7.192;2023-10-19T00:20:34;9.07;;;4.68;;
35959;SDS011;22043;50.970;7.192;2023-10-19T00:23:14;9.15;;;4.90;;
35959;SDS011;22043;50.970;7.192;2023-10-19T00:25:44;9.00;;;5.00;;
35959;SDS011;22043;50.970;7.192;2023-10-19T00:28:14;8.75;;;5.13;;
35959;SDS011;22043;50.970;7.192;2023-10-19T00:30:42;10.23;;;5.45;;
35959;SDS011;22043;50.970;7.192;2023-10-19T00:33:08;10.32;;;5.38;;
35959;SDS011;22043;50.970;7.192;2023-10-19T00:35:45;7.55;;;4.00;;
35959;SDS011;22043;50.970;7.192;2023-10-19T00:38:25;9.30;;;4.93;;
35959;SDS011;22043;50.970;7.192;2023-10-19T00:41:00;10.63;;;5.35;;
35959;SDS011;22043;50.970;7.192;2023-10-19T00:43:35;8.80;;;4.60;;
35959;SDS011;22043;50.970;7.192;2023-10-19T00:46:10;8.88;;;5.32;;
35959;SDS011;22043;50.970;7.192;2023-10-19T00:48:57;11.13;;;6.40;;
35959;SDS011;22043;50.970;7.192;2023-10-19T00:51:25;11.45;;;5.05;;
35959;SDS011;22043;50.970;7.192;2023-10-19T00:54:16;8.05;;;4.38;;
35959;SDS011;22043;50.970;7.192;2023-10-19T00:57:04;9.68;;;5.47;;
35959;SDS011;22043;50.970;7.192;2023-10-19T00:59:37;8.35;;;5.15;;
35959;SDS011;22043;50.970;7.192;2023-10-19T01:02:08;8.70;;;5.20;;
35959;SDS011;22043;50.970;7.192;2023-10-19T01:04:45;9.70;;;4.88;;
35959;SDS011;22043;50.970;7.192;2023-10-19T01:07:29;8.68;;;5.30;;
35959;SDS011;22043;50.970;7.192;2023-10-19T01:09:55;9.32;;;4.60;;
35959;SDS011;22043;50.970;7.192;2023-10-19T01:12:22;9.60;;;5.30;;
35959;SDS011;22043;50.970;7.192;2023-10-19T01:15:10;8.63;;;4.90;;
35959;SDS011;22043;50.970;7.192;2023-10-19T01:17:43;9.85;;;5.25;;
35959;SDS011;22043;50.970;7.192;2023-10-19T01:20:11;9.83;;;4.53;;
35959;SDS011;22043;50.970;7.192;2023-10-19T01:25:18;10.43;;;4.85;;
35959;SDS011;22043;50.970;7.192;2023-10-19T01:27:44;8.88;;;5.25;;
35959;SDS011;22043;50.970;7.192;2023-10-19T01:30:10;9.43;;;5.07;;
35959;SDS011;22043;50.970;7.192;2023-10-19T01:32:36;9.80;;;4.75;;
35959;SDS011;22043;50.970;7.192;2023-10-19T01:35:01;8.20;;;4.82;;
35959;SDS011;22043;50.970;7.192;2023-10-19T01:37:27;9.00;;;4.95;;
35959;SDS011;22043;50.970;7.192;2023-10-19T01:39:52;8.35;;;4.43;;
35959;SDS011;22043;50.970;7.192;2023-10-19T01:42:17;10.85;;;5.50;;
35959;SDS011;22043;50.970;7.192;2023-10-19T01:44:43;10.10;;;5.22;;
35959;SDS011;22043;50.970;7.192;2023-10-19T01:47:08;7.65;;;4.50;;
35959;SDS011;22043;50.970;7.192;2023-10-19T01:49:34;10.25;;;4.45;;
35959;SDS011;22043;50.970;7.192;2023-10-19T01:52:00;8.88;;;4.60;;
35959;SDS011;22043;50.970;7.192;2023-10-19T01:54:26;8.43;;;4.65;;
35959;SDS011;22043;50.970;7.192;2023-10-19T01:56:52;7.85;;;4.40;;
35959;SDS011;22043;50.970;7.192;2023-10-19T01:59:24;7.70;;;4.88;;
35959;SDS011;22043;50.970;7.192;2023-10-19T02:01:53;10.70;;;5.38;;
35959;SDS011;22043;50.970;7.192;2023-10-19T02:04:19;8.23;;;4.78;;
35959;SDS011;22043;50.970;7.192;2023-10-19T02:06:46;6.60;;;3.88;;
35959;SDS011;22043;50.970;7.192;2023-10-19T02:09:13;11.23;;;5.22;;
35959;SDS011;22043;50.970;7.192;2023-10-19T02:11:45;6.93;;;4.00;;
35959;SDS011;22043;50.970;7.192;2023-10-19T02:14:12;6.53;;;3.55;;
35959;SDS011;22043;50.970;7.192;2023-10-19T02:16:44;7.85;;;3.50;;
35959;SDS011;22043;50.970;7.192;2023-10-19T02:19:18;7.67;;;4.20;;
35959;SDS011;22043;50.970;7.192;2023-10-19T02:21:51;7.10;;;4.18;;
35959;SDS011;22043;50.970;7.192;2023-10-19T02:24:18;6.95;;;4.07;;
35959;SDS011;22043;50.970;7.192;2023-10-19T02:26:44;8.13;;;4.40;;
35959;SDS011;22043;50.970;7.192;2023-10-19T02:31:38;8.43;;;3.88;;
35959;SDS011;22043;50.970;7.192;2023-10-19T02:34:06;7.55;;;3.90;;
35959;SDS011;22043;50.970;7.192;2023-10-19T02:36:32;9.60;;;4.20;;
35959;SDS011;22043;50.970;7.192;2023-10-19T02:39:01;8.38;;;3.90;;
35959;SDS011;22043;50.970;7.192;2023-10-19T02:41:35;6.65;;;3.95;;
35959;SDS011;22043;50.970;7.192;2023-10-19T02:44:01;7.32;;;3.97;;
35959;SDS011;22043;50.970;7.192;2023-10-19T02:46:31;6.88;;;3.90;;
35959;SDS011;22043;50.970;7.192;2023-10-19T02:49:03;6.82;;;4.07;;
35959;SDS011;22043;50.970;7.192;2023-10-19T02:51:34;6.45;;;3.58;;
35959;SDS011;22043;50.970;7.192;2023-10-19T02:53:59;7.00;;;4.03;;
35959;SDS011;22043;50.970;7.192;2023-10-19T02:56:27;8.18;;;3.80;;
35959;SDS011;22043;50.970;7.192;2023-10-19T02:58:55;7.28;;;3.88;;
35959;SDS011;22043;50.970;7.192;2023-10-19T03:01:26;5.80;;;3.40;;
35959;SDS011;22043;50.970;7.192;2023-10-19T03:03:55;6.60;;;3.78;;
35959;SDS011;22043;50.970;7.192;2023-10-19T03:06:26;7.45;;;3.42;;
35959;SDS011;22043;50.970;7.192;2023-10-19T03:08:56;9.13;;;4.03;;
35959;SDS011;22043;50.970;7.192;2023-10-19T03:11:27;7.20;;;3.58;;
35959;SDS011;22043;50.970;7.192;2023-10-19T03:13:56;6.90;;;4.03;;
35959;SDS011;22043;50.970;7.192;2023-10-19T03:16:22;8.98;;;4.03;;
35959;SDS011;22043;50.970;7.192;2023-10-19T03:18:48;7.80;;;3.30;;
35959;SDS011;22043;50.970;7.192;2023-10-19T03:21:16;7.28;;;3.80;;
35959;SDS011;22043;50.970;7.192;2023-10-19T03:23:42;6.35;;;3.42;;
35959;SDS011;22043;50.970;7.192;2023-10-19T03:26:08;5.90;;;3.25;;
35959;SDS011;22043;50.970;7.192;2023-10-19T03:28:59;7.63;;;3.83;;
35959;SDS011;22043;50.970;7.192;2023-10-19T03:34:12;8.50;;;3.83;;
35959;SDS011;22043;50.970;7.192;2023-10-19T03:36:38;15.50;;;4.80;;
35959;SDS011;22043;50.970;7.192;2023-10-19T03:39:04;11.60;;;4.68;;
35959;SDS011;22043;50.970;7.192;2023-10-19T03:41:42;9.73;;;4.57;;
35959;SDS011;22043;50.970;7.192;2023-10-19T03:44:09;9.90;;;4.47;;
35959;SDS011;22043;50.970;7.192;2023-10-19T03:46:50;8.55;;;4.57;;
35959;SDS011;22043;50.970;7.192;2023-10-19T03:49:51;8.95;;;4.10;;
35959;SDS011;22043;50.970;7.192;2023-10-19T03:52:18;7.57;;;4.20;;
35959;SDS011;22043;50.970;7.192;2023-10-19T03:54:43;9.18;;;4.57;;
35959;SDS011;22043;50.970;7.192;2023-10-19T03:57:16;8.15;;;4.47;;
35959;SDS011;22043;50.970;7.192;2023-10-19T03:59:47;7.38;;;4.60;;
35959;SDS011;22043;50.970;7.192;2023-10-19T04:02:15;9.10;;;4.72;;
35959;SDS011;22043;50.970;7.192;2023-10-19T04:04:42;8.85;;;4.28;;
35959;SDS011;22043;50.970;7.192;2023-10-19T04:07:13;7.03;;;4.35;;
35959;SDS011;22043;50.970;7.192;2023-10-19T04:09:57;11.35;;;4.68;;
35959;SDS011;22043;50.970;7.192;2023-10-19T04:12:31;6.68;;;4.35;;
35959;SDS011;22043;50.970;7.192;2023-10-19T04:14:58;7.22;;;4.20;;
35959;SDS011;22043;50.970;7.192;2023-10-19T04:17:34;6.90;;;3.65;;
35959;SDS011;22043;50.970;7.192;2023-10-19T04:20:01;9.85;;;4.82;;
35959;SDS011;22043;50.970;7.192;2023-10-19T04:22:34;7.35;;;4.18;;
35959;SDS011;22043;50.970;7.192;2023-10-19T04:25:00;7.53;;;4.22;;
35959;SDS011;22043;50.970;7.192;2023-10-19T04:27:26;7.65;;;4.03;;
35959;SDS011;22043;50.970;7.192;2023-10-19T04:29:52;8.60;;;4.20;;
35959;SDS011;22043;50.970;7.192;2023-10-19T04:32:17;6.97;;;3.72;;
35959;SDS011;22043;50.970;7.192;2023-10-19T04:34:51;8.30;;;3.97;;
35959;SDS011;22043;50.970;7.192;2023-10-19T04:37:17;7.30;;;3.88;;
35959;SDS011;22043;50.970;7.192;2023-10-19T04:39:44;5.85;;;3.05;;
35959;SDS011;22043;50.970;7.192;2023-10-19T04:42:09;7.32;;;3.28;;
35959;SDS011;22043;50.970;7.192;2023-10-19T04:44:35;5.10;;;3.22;;
35959;SDS011;22043;50.970;7.192;2023-10-19T04:47:00;7.15;;;3.15;;
35959;SDS011;22043;50.970;7.192;2023-10-19T04:49:26;9.15;;;3.55;;
35959;SDS011;22043;50.970;7.192;2023-10-19T04:51:51;5.75;;;3.08;;
35959;SDS011;22043;50.970;7.192;2023-10-19T04:54:17;6.63;;;2.95;;
35959;SDS011;22043;50.970;7.192;2023-10-19T04:56:42;5.68;;;3.15;;
35959;SDS011;22043;50.970;7.192;2023-10-19T04:59:07;4.72;;;2.90;;
35959;SDS011;22043;50.970;7.192;2023-10-19T05:01:33;5.82;;;3.17;;
35959;SDS011;22043;50.970;7.192;2023-10-19T05:03:59;6.47;;;3.50;;
35959;SDS011;22043;50.970;7.192;2023-10-19T05:06:25;6.32;;;2.88;;
35959;SDS011;22043;50.970;7.192;2023-10-19T05:08:50;5.40;;;2.80;;
35959;SDS011;22043;50.970;7.192;2023-10-19T05:11:17;5.40;;;2.50;;
35959;SDS011;22043;50.970;7.192;2023-10-19T05:13:42;5.88;;;2.83;;
35959;SDS011;22043;50.970;7.192;2023-10-19T05:16:08;6.32;;;3.33;;
35959;SDS011;22043;50.970;7.192;2023-10-19T05:18:33;6.05;;;3.20;;
35959;SDS011;22043;50.970;7.192;2023-10-19T05:20:59;7.45;;;2.58;;
35959;SDS011;22043;50.970;7.192;2023-10-19T05:23:27;6.80;;;2.60;;
35959;SDS011;22043;50.970;7.192;2023-10-19T05:26:03;4.17;;;2.10;;
35959;SDS011;22043;50.970;7.192;2023-10-19T05:28:29;7.45;;;2.25;;
35959;SDS011;22043;50.970;7.192;2023-10-19T05:30:55;3.60;;;2.15;;
35959;SDS011;22043;50.970;7.192;2023-10-19T05:33:21;4.68;;;2.30;;
35959;SDS011;22043;50.970;7.192;2023-10-19T05:35:48;5.25;;;2.05;;
35959;SDS011;22043;50.970;7.192;2023-10-19T05:38:14;3.22;;;1.58;;
35959;SDS011;22043;50.970;7.192;2023-10-19T05:40:40;7.15;;;1.75;;
35959;SDS011;22043;50.970;7.192;2023-10-19T05:43:08;4.05;;;2.10;;
35959;SDS011;22043;50.970;7.192;2023-10-19T05:45:34;3.97;;;1.77;;
35959;SDS011;22043;50.970;7.192;2023-10-19T05:48:01;4.47;;;1.50;;
35959;SDS011;22043;50.970;7.192;2023-10-19T05:50:29;3.47;;;1.58;;
35959;SDS011;22043;50.970;7.192;2023-10-19T05:52:55;3.67;;;1.52;;
35959;SDS011;22043;50.970;7.192;2023-10-19T05:55:20;6.25;;;2.17;;
35959;SDS011;22043;50.970;7.192;2023-10-19T05:57:48;4.93;;;1.70;;
35959;SDS011;22043;50.970;7.192;2023-10-19T06:00:14;3.22;;;1.40;;
35959;SDS011;22043;50.970;7.192;2023-10-19T06:02:44;2.42;;;1.13;;
35959;SDS011;22043;50.970;7.192;2023-10-19T06:05:10;3.38;;;1.63;;
35959;SDS011;22043;50.970;7.192;2023-10-19T06:07:37;3.87;;;1.57;;
35959;SDS011;22043;50.970;7.192;2023-10-19T06:10:03;1.80;;;1.10;;
35959;SDS011;22043;50.970;7.192;2023-10-19T06:12:31;2.78;;;1.58;;
35959;SDS011;22043;50.970;7.192;2023-10-19T06:14:58;5.45;;;2.42;;
35959;SDS011;22043;50.970;7.192;2023-10-19T06:17:24;3.50;;;1.63;;
35959;SDS011;22043;50.970;7.192;2023-10-19T06:19:49;5.28;;;1.88;;
35959;SDS011;22043;50.970;7.192;2023-10-19T06:22:15;3.58;;;2.00;;
35959;SDS011;22043;50.970;7.192;2023-10-19T06:24:43;4.38;;;2.17;;
35959;SDS011;22043;50.970;7.192;2023-10-19T06:27:11;4.90;;;2.08;;
35959;SDS011;22043;50.970;7.192;2023-10-19T06:29:37;5.03;;;2.20;;
35959;SDS011;22043;50.970;7.192;2023-10-19T06:32:02;5.30;;;2.05;;
35959;SDS011;22043;50.970;7.192;2023-10-19T06:34:28;5.35;;;2.25;;
35959;SDS011;22043;50.970;7.192;2023-10-19T06:36:54;4.30;;;2.28;;
35959;SDS011;22043;50.970;7.192;2023-10-19T06:39:19;7.00;;;2.40;;
35959;SDS011;22043;50.970;7.192;2023-10-19T06:41:46;5.78;;;2.78;;
35959;SDS011;22043;50.970;7.192;2023-10-19T06:44:12;5.85;;;2.67;;
35959;SDS011;22043;50.970;7.192;2023-10-19T06:46:38;6.43;;;3.20;;
35959;SDS011;22043;50.970;7.192;2023-10-19T06:49:04;4.68;;;2.80;;
35959;SDS011;22043;50.970;7.192;2023-10-19T06:51:30;6.95;;;3.50;;
35959;SDS011;22043;50.970;7.192;2023-10-19T06:53:57;4.93;;;2.92;;
35959;SDS011;22043;50.970;7.192;2023-10-19T06:56:22;6.97;;;3.22;;
35959;SDS011;22043;50.970;7.192;2023-10-19T06:58:48;8.40;;;2.65;;
35959;SDS011;22043;50.970;7.192;2023-10-19T07:01:14;7.00;;;2.70;;
35959;SDS011;22043;50.970;7.192;2023-10-19T07:03:41;7.40;;;3.90;;
35959;SDS011;22043;50.970;7.192;2023-10-19T07:06:07;8.20;;;2.92;;
35959;SDS011;22043;50.970;7.192;2023-10-19T07:08:38;6.35;;;2.80;;
35959;SDS011;22043;50.970;7.192;2023-10-19T07:11:06;8.13;;;3.22;;
35959;SDS011;22043;50.970;7.192;2023-10-19T07:13:32;6.88;;;2.92;;
35959;SDS011;22043;50.970;7.192;2023-10-19T07:15:58;5.50;;;2.65;;
35959;SDS011;22043;50.970;7.192;2023-10-19T07:18:24;4.15;;;1.98;;
35959;SDS011;22043;50.970;7.192;2023-10-19T07:20:49;5.50;;;2.55;;
35959;SDS011;22043;50.970;7.192;2023-10-19T07:23:18;4.55;;;2.67;;
35959;SDS011;22043;50.970;7.192;2023-10-19T07:25:45;4.50;;;2.33;;
35959;SDS011;22043;50.970;7.192;2023-10-19T07:30:38;3.40;;;1.75;;
35959;SDS011;22043;50.970;7.192;2023-10-19T07:33:05;5.83;;;2.23;;
35959;SDS011;22043;50.970;7.192;2023-10-19T07:35:34;6.38;;;2.50;;
35959;SDS011;22043;50.970;7.192;2023-10-19T07:38:00;5.70;;;2.05;;
35959;SDS011;22043;50.970;7.192;2023-10-19T07:40:26;6.38;;;2.38;;
35959;SDS011;22043;50.970;7.192;2023-10-19T07:42:53;4.40;;;2.08;;
35959;SDS011;22043;50.970;7.192;2023-10-19T07:45:20;7.13;;;2.40;;
35959;SDS011;22043;50.970;7.192;2023-10-19T07:47:46;4.28;;;1.90;;
35959;SDS011;22043;50.970;7.192;2023-10-19T07:50:12;6.85;;;1.95;;
35959;SDS011;22043;50.970;7.192;2023-10-19T07:52:44;5.22;;;1.75;;
35959;SDS011;22043;50.970;7.192;2023-10-19T07:55:15;5.50;;;1.65;;
35959;SDS011;22043;50.970;7.192;2023-10-19T07:57:44;9.55;;;2.15;;
35959;SDS011;22043;50.970;7.192;2023-10-19T08:00:10;4.60;;;2.13;;
35959;SDS011;22043;50.970;7.192;2023-10-19T08:02:39;5.38;;;1.85;;
35959;SDS011;22043;50.970;7.192;2023-10-19T08:05:06;7.43;;;2.33;;
35959;SDS011;22043;50.970;7.192;2023-10-19T08:07:33;6.63;;;1.65;;
35959;SDS011;22043;50.970;7.192;2023-10-19T08:10:02;4.75;;;1.58;;
35959;SDS011;22043;50.970;7.192;2023-10-19T08:12:30;5.68;;;1.75;;
35959;SDS011;22043;50.970;7.192;2023-10-19T08:14:56;7.05;;;2.28;;
35959;SDS011;22043;50.970;7.192;2023-10-19T08:17:22;6.10;;;2.20;;
35959;SDS011;22043;50.970;7.192;2023-10-19T08:19:48;5.85;;;2.33;;
35959;SDS011;22043;50.970;7.192;2023-10-19T08:22:13;4.32;;;1.40;;
35959;SDS011;22043;50.970;7.192;2023-10-19T08:24:40;5.88;;;1.70;;
35959;SDS011;22043;50.970;7.192;2023-10-19T08:27:08;4.47;;;1.40;;
35959;SDS011;22043;50.970;7.192;2023-10-19T08:29:39;7.35;;;2.10;;
35959;SDS011;22043;50.970;7.192;2023-10-19T08:32:04;9.55;;;2.10;;
35959;SDS011;22043;50.970;7.192;2023-10-19T08:34:37;3.08;;;1.70;;
35959;SDS011;22043;50.970;7.192;2023-10-19T08:37:04;5.43;;;1.73;;
35959;SDS011;22043;50.970;7.192;2023-10-19T08:39:32;5.30;;;1.83;;
35959;SDS011;22043;50.970;7.192;2023-10-19T08:42:04;10.77;;;1.95;;
35959;SDS011;22043;50.970;7.192;2023-10-19T08:44:30;6.80;;;1.85;;
35959;SDS011;22043;50.970;7.192;2023-10-19T08:46:56;6.45;;;1.10;;
35959;SDS011;22043;50.970;7.192;2023-10-19T08:49:25;4.28;;;1.48;;
35959;SDS011;22043;50.970;7.192;2023-10-19T08:51:53;6.63;;;1.50;;
35959;SDS011;22043;50.970;7.192;2023-10-19T08:54:19;6.28;;;1.45;;
35959;SDS011;22043;50.970;7.192;2023-10-19T08:56:45;4.97;;;1.35;;
35959;SDS011;22043;50.970;7.192;2023-10-19T08:59:12;7.68;;;1.63;;
35959;SDS011;22043;50.970;7.192;2023-10-19T09:01:40;4.07;;;1.40;;
35959;SDS011;22043;50.970;7.192;2023-10-19T09:04:09;6.40;;;1.33;;
35959;SDS011;22043;50.970;7.192;2023-10-19T09:06:41;7.63;;;1.80;;
35959;SDS011;22043;50.970;7.192;2023-10-19T09:09:08;2.30;;;1.10;;
35959;SDS011;22043;50.970;7.192;2023-10-19T09:11:34;5.85;;;1.40;;
35959;SDS011;22043;50.970;7.192;2023-10-19T09:14:00;3.10;;;1.13;;
35959;SDS011;22043;50.970;7.192;2023-10-19T09:16:26;14.55;;;1.90;;
35959;SDS011;22043;50.970;7.192;2023-10-19T09:18:52;4.35;;;1.20;;
35959;SDS011;22043;50.970;7.192;2023-10-19T09:21:18;5.70;;;1.20;;
35959;SDS011;22043;50.970;7.192;2023-10-19T09:23:50;6.15;;;1.63;;
35959;SDS011;22043;50.970;7.192;2023-10-19T09:26:17;6.63;;;1.70;;
35959;SDS011;22043;50.970;7.192;2023-10-19T09:28:45;5.22;;;1.40;;
35959;SDS011;22043;50.970;7.192;2023-10-19T09:31:12;5.93;;;1.08;;
35959;SDS011;22043;50.970;7.192;2023-10-19T09:33:40;4.35;;;1.27;;
35959;SDS011;22043;50.970;7.192;2023-10-19T09:36:06;3.88;;;1.30;;
35959;SDS011;22043;50.970;7.192;2023-10-19T09:38:38;5.55;;;1.60;;
35959;SDS011;22043;50.970;7.192;2023-10-19T09:41:19;6.07;;;1.75;;
35959;SDS011;22043;50.970;7.192;2023-10-19T09:43:50;4.18;;;1.20;;
35959;SDS011;22043;50.970;7.192;2023-10-19T09:46:26;8.50;;;1.13;;
35959;SDS011;22043;50.970;7.192;2023-10-19T09:48:54;5.70;;;1.13;;
35959;SDS011;22043;50.970;7.192;2023-10-19T09:51:20;6.22;;;1.20;;
35959;SDS011;22043;50.970;7.192;2023-10-19T09:54:09;6.05;;;1.35;;
35959;SDS011;22043;50.970;7.192;2023-10-19T09:56:41;8.52;;;1.10;;
35959;SDS011;22043;50.970;7.192;2023-10-19T09:59:21;9.02;;;1.10;;
35959;SDS011;22043;50.970;7.192;2023-10-19T10:04:52;4.68;;;2.05;;
35959;SDS011;22043;50.970;7.192;2023-10-19T10:07:18;4.15;;;0.80;;
35959;SDS011;22043;50.970;7.192;2023-10-19T10:09:43;3.28;;;1.38;;
35959;SDS011;22043;50.970;7.192;2023-10-19T10:12:18;3.72;;;0.80;;
35959;SDS011;22043;50.970;7.192;2023-10-19T10:17:38;4.80;;;1.30;;
35959;SDS011;22043;50.970;7.192;2023-10-19T10:25:51;6.70;;;1.13;;
35959;SDS011;22043;50.970;7.192;2023-10-19T10:28:19;4.40;;;0.95;;
35959;SDS011;22043;50.970;7.192;2023-10-19T10:33:39;4.00;;;0.90;;
35959;SDS011;22043;50.970;7.192;2023-10-19T10:36:05;4.50;;;1.10;;
35959;SDS011;22043;50.970;7.192;2023-10-19T10:38:34;2.90;;;0.77;;
35959;SDS011;22043;50.970;7.192;2023-10-19T10:41:02;4.13;;;0.90;;
35959;SDS011;22043;50.970;7.192;2023-10-19T10:43:28;5.18;;;0.90;;
35959;SDS011;22043;50.970;7.192;2023-10-19T10:46:04;4.43;;;1.20;;
35959;SDS011;22043;50.970;7.192;2023-10-19T10:48:30;4.88;;;0.82;;
35959;SDS011;22043;50.970;7.192;2023-10-19T10:50:55;6.47;;;1.02;;
35959;SDS011;22043;50.970;7.192;2023-10-19T10:53:22;5.82;;;1.48;;
35959;SDS011;22043;50.970;7.192;2023-10-19T10:55:49;8.93;;;3.13;;
35959;SDS011;22043;50.970;7.192;2023-10-19T10:58:15;10.80;;;2.22;;
35959;SDS011;22043;50.970;7.192;2023-10-19T11:00:42;4.85;;;1.27;;
35959;SDS011;22043;50.970;7.192;2023-10-19T11:03:08;7.75;;;1.80;;
35959;SDS011;22043;50.970;7.192;2023-10-19T11:05:35;3.63;;;1.10;;
35959;SDS011;22043;50.970;7.192;2023-10-19T11:10:32;6.00;;;1.52;;
35959;SDS011;22043;50.970;7.192;2023-10-19T11:13:02;5.72;;;1.00;;
35959;SDS011;22043;50.970;7.192;2023-10-19T11:15:32;6.10;;;0.80;;
35959;SDS011;22043;50.970;7.192;2023-10-19T11:18:02;7.43;;;1.15;;
35959;SDS011;22043;50.970;7.192;2023-10-19T11:20:28;5.32;;;1.65;;
35959;SDS011;22043;50.970;7.192;2023-10-19T11:22:54;7.82;;;1.48;;
35959;SDS011;22043;50.970;7.192;2023-10-19T11:25:29;5.97;;;1.50;;
35959;SDS011;22043;50.970;7.192;2023-10-19T11:27:56;4.40;;;0.80;;
35959;SDS011;22043;50.970;7.192;2023-10-19T11:30:22;6.32;;;0.90;;
35959;SDS011;22043;50.970;7.192;2023-10-19T11:32:49;3.70;;;0.77;;
35959;SDS011;22043;50.970;7.192;2023-10-19T11:35:18;9.52;;;1.75;;
35959;SDS011;22043;50.970;7.192;2023-10-19T11:37:54;11.60;;;1.60;;
35959;SDS011;22043;50.970;7.192;2023-10-19T11:40:21;6.45;;;1.20;;
35959;SDS011;22043;50.970;7.192;2023-10-19T11:42:48;5.07;;;1.70;;
35959;SDS011;22043;50.970;7.192;2023-10-19T11:45:14;7.93;;;1.20;;
35959;SDS011;22043;50.970;7.192;2023-10-19T11:47:41;7.95;;;1.30;;
35959;SDS011;22043;50.970;7.192;2023-10-19T11:50:10;6.32;;;0.73;;
35959;SDS011;22043;50.970;7.192;2023-10-19T11:52:43;3.90;;;0.82;;
35959;SDS011;22043;50.970;7.192;2023-10-19T11:55:11;3.83;;;1.20;;
35959;SDS011;22043;50.970;7.192;2023-10-19T11:57:38;4.75;;;1.20;;
35959;SDS011;22043;50.970;7.192;2023-10-19T12:00:05;7.43;;;0.93;;
35959;SDS011;22043;50.970;7.192;2023-10-19T12:02:37;7.45;;;1.35;;
35959;SDS011;22043;50.970;7.192;2023-10-19T12:05:03;6.65;;;1.63;;
35959;SDS011;22043;50.970;7.192;2023-10-19T12:07:35;5.15;;;1.38;;
35959;SDS011;22043;50.970;7.192;2023-10-19T12:10:02;3.72;;;0.70;;
35959;SDS011;22043;50.970;7.192;2023-10-19T12:12:28;7.55;;;1.63;;
35959;SDS011;22043;50.970;7.192;2023-10-19T12:14:53;4.32;;;1.02;;
35959;SDS011;22043;50.970;7.192;2023-10-19T12:17:20;5.05;;;0.90;;
35959;SDS011;22043;50.970;7.192;2023-10-19T12:19:47;7.80;;;1.45;;
35959;SDS011;22043;50.970;7.192;2023-10-19T12:22:13;3.58;;;0.88;;
35959;SDS011;22043;50.970;7.192;2023-10-19T12:24:38;5.97;;;1.35;;
35959;SDS011;22043;50.970;7.192;2023-10-19T12:27:04;3.40;;;1.33;;
35959;SDS011;22043;50.970;7.192;2023-10-19T12:29:29;9.45;;;1.75;;
35959;SDS011;22043;50.970;7.192;2023-10-19T12:31:57;7.25;;;1.50;;
35959;SDS011;22043;50.970;7.192;2023-10-19T12:34:22;8.35;;;1.10;;
35959;SDS011;22043;50.970;7.192;2023-10-19T12:36:48;7.18;;;1.63;;
35959;SDS011;22043;50.970;7.192;2023-10-19T12:39:15;4.43;;;1.00;;
35959;SDS011;22043;50.970;7.192;2023-10-19T12:41:59;3.42;;;1.05;;
35959;SDS011;22043;50.970;7.192;2023-10-19T12:44:26;7.67;;;1.60;;
35959;SDS011;22043;50.970;7.192;2023-10-19T12:46:54;6.90;;;1.27;;
35959;SDS011;22043;50.970;7.192;2023-10-19T12:49:19;8.77;;;1.25;;
35959;SDS011;22043;50.970;7.192;2023-10-19T12:51:51;6.43;;;1.65;;
35959;SDS011;22043;50.970;7.192;2023-10-19T12:54:19;5.53;;;1.40;;
35959;SDS011;22043;50.970;7.192;2023-10-19T12:56:44;5.13;;;1.23;;
35959;SDS011;22043;50.970;7.192;2023-10-19T12:59:10;7.20;;;1.92;;
35959;SDS011;22043;50.970;7.192;2023-10-19T13:01:36;8.75;;;1.33;;
35959;SDS011;22043;50.970;7.192;2023-10-19T13:04:01;5.18;;;1.40;;
35959;SDS011;22043;50.970;7.192;2023-10-19T13:06:39;8.02;;;1.08;;
35959;SDS011;22043;50.970;7.192;2023-10-19T13:09:04;3.53;;;1.00;;
35959;SDS011;22043;50.970;7.192;2023-10-19T13:11:30;9.43;;;1.65;;
35959;SDS011;22043;50.970;7.192;2023-10-19T13:13:57;5.38;;;1.27;;
35959;SDS011;22043;50.970;7.192;2023-10-19T13:16:25;8.93;;;2.20;;
35959;SDS011;22043;50.970;7.192;2023-10-19T13:18:51;6.55;;;1.33;;
35959;SDS011;22043;50.970;7.192;2023-10-19T13:21:16;6.03;;;1.83;;
35959;SDS011;22043;50.970;7.192;2023-10-19T13:23:47;4.68;;;1.20;;
35959;SDS011;22043;50.970;7.192;2023-10-19T13:26:13;6.70;;;1.17;;
35959;SDS011;22043;50.970;7.192;2023-10-19T13:28:43;8.57;;;1.63;;
35959;SDS011;22043;50.970;7.192;2023-10-19T13:31:09;3.35;;;1.25;;
35959;SDS011;22043;50.970;7.192;2023-10-19T13:33:34;9.48;;;1.38;;
35959;SDS011;22043;50.970;7.192;2023-10-19T13:36:00;6.80;;;1.40;;
35959;SDS011;22043;50.970;7.192;2023-10-19T13:38:25;6.50;;;1.23;;
35959;SDS011;22043;50.970;7.192;2023-10-19T13:40:50;8.32;;;1.85;;
35959;SDS011;22043;50.970;7.192;2023-10-19T13:43:16;13.55;;;1.58;;
35959;SDS011;22043;50.970;7.192;2023-10-19T13:45:47;6.68;;;1.25;;
35959;SDS011;22043;50.970;7.192;2023-10-19T13:48:13;7.00;;;1.30;;
35959;SDS011;22043;50.970;7.192;2023-10-19T13:50:45;5.07;;;1.75;;
35959;SDS011;22043;50.970;7.192;2023-10-19T13:53:17;7.22;;;1.58;;
35959;SDS011;22043;50.970;7.192;2023-10-19T13:55:43;5.05;;;1.08;;
35959;SDS011;22043;50.970;7.192;2023-10-19T13:58:09;5.15;;;1.00;;
35959;SDS011;22043;50.970;7.192;2023-10-19T14:00:36;9.15;;;2.40;;
35959;SDS011;22043;50.970;7.192;2023-10-19T14:03:04;8.95;;;2.50;;
35959;SDS011;22043;50.970;7.192;2023-10-19T14:05:30;4.53;;;1.58;;
35959;SDS011;22043;50.970;7.192;2023-10-19T14:08:01;9.35;;;1.40;;
35959;SDS011;22043;50.970;7.192;2023-10-19T14:10:28;7.90;;;1.05;;
35959;SDS011;22043;50.970;7.192;2023-10-19T14:12:54;5.60;;;1.40;;
35959;SDS011;22043;50.970;7.192;2023-10-19T14:15:19;12.00;;;2.20;;
35959;SDS011;22043;50.970;7.192;2023-10-19T14:17:46;32.13;;;4.35;;
35959;SDS011;22043;50.970;7.192;2023-10-19T14:20:13;9.77;;;2.43;;
35959;SDS011;22043;50.970;7.192;2023-10-19T14:22:42;8.43;;;1.75;;
35959;SDS011;22043;50.970;7.192;2023-10-19T14:25:09;3.08;;;1.30;;
35959;SDS011;22043;50.970;7.192;2023-10-19T14:27:40;12.48;;;2.05;;
35959;SDS011;22043;50.970;7.192;2023-10-19T14:30:10;9.25;;;1.90;;
35959;SDS011;22043;50.970;7.192;2023-10-19T14:32:40;14.20;;;2.42;;
35959;SDS011;22043;50.970;7.192;2023-10-19T14:35:13;9.52;;;1.80;;
35959;SDS011;22043;50.970;7.192;2023-10-19T14:37:51;7.80;;;1.90;;
35959;SDS011;22043;50.970;7.192;2023-10-19T14:40:23;4.53;;;1.40;;
35959;SDS011;22043;50.970;7.192;2023-10-19T14:42:50;5.30;;;1.42;;
35959;SDS011;22043;50.970;7.192;2023-10-19T14:45:19;7.15;;;1.70;;
35959;SDS011;22043;50.970;7.192;2023-10-19T14:47:48;7.07;;;2.00;;
35959;SDS011;22043;50.970;7.192;2023-10-19T14:50:16;8.52;;;1.90;;
35959;SDS011;22043;50.970;7.192;2023-10-19T14:52:48;7.13;;;2.13;;
35959;SDS011;22043;50.970;7.192;2023-10-19T14:55:14;10.57;;;3.10;;
35959;SDS011;22043;50.970;7.192;2023-10-19T14:57:41;5.40;;;1.90;;
35959;SDS011;22043;50.970;7.192;2023-10-19T15:00:09;9.07;;;2.55;;
35959;SDS011;22043;50.970;7.192;2023-10-19T15:02:56;7.90;;;2.35;;
35959;SDS011;22043;50.970;7.192;2023-10-19T15:05:25;7.78;;;2.55;;
35959;SDS011;22043;50.970;7.192;2023-10-19T15:07:51;6.20;;;2.20;;
35959;SDS011;22043;50.970;7.192;2023-10-19T15:10:18;9.30;;;2.30;;
35959;SDS011;22043;50.970;7.192;2023-10-19T15:12:45;9.63;;;2.60;;
35959;SDS011;22043;50.970;7.192;2023-10-19T15:15:10;4.78;;;2.30;;
35959;SDS011;22043;50.970;7.192;2023-10-19T15:17:42;6.95;;;2.55;;
35959;SDS011;22043;50.970;7.192;2023-10-19T15:20:10;13.25;;;2.75;;